Time;durP1;ratioP1;P1;durP2;ratioP2;P2;SDS_P1;SDS_P2;PMS_P1;PMS_P2;Temp;Humidity;BMP_temperature;BMP_pressure;BME280_temperature;BME280_humidity;BME280_pressure;Samples;Min_cycle;Max_cycle;Signal;HPM_P1;HPM_P2
2023/07/17 00:01:31;;;;;;;7.87;3.20;;;18.60;99.90;;;;;;5031433;28;20197;-65
2023/07/17 00:03:57;;;;;;;8.93;2.63;;;18.50;99.90;;;;;;5031538;28;20180;-65
2023/07/17 00:06:22;;;;;;;5.10;2.70;;;18.30;99.90;;;;;;5031278;28;20178;-65
2023/07/17 00:08:48;;;;;;;5.10;2.27;;;18.30;99.90;;;;;;5031349;28;20222;-65
2023/07/17 00:11:13;;;;;;;9.80;3.10;;;18.40;99.90;;;;;;5029961;28;20184;-65
2023/07/17 00:13:39;;;;;;;6.77;3.60;;;18.40;99.90;;;;;;5030934;28;20185;-65
2023/07/17 00:16:04;;;;;;;6.47;3.07;;;18.50;99.90;;;;;;5031278;28;20211;-64
2023/07/17 00:18:34;;;;;;;9.20;3.10;;;18.50;99.90;;;;;;5031017;28;20601;-64
2023/07/17 00:21:00;;;;;;;9.17;3.20;;;18.40;99.90;;;;;;5030825;28;20271;-64
2023/07/17 00:23:25;;;;;;;4.03;2.60;;;18.40;99.90;;;;;;5030729;28;20462;-65
2023/07/17 00:25:51;;;;;;;6.80;3.37;;;18.30;99.90;;;;;;5030741;28;20423;-64
2023/07/17 00:28:17;;;;;;;5.67;3.10;;;18.30;99.90;;;;;;5030725;28;20185;-65
2023/07/17 00:30:43;;;;;;;3.07;2.50;;;18.10;99.90;;;;;;5030678;28;20204;-64
2023/07/17 00:33:09;;;;;;;6.23;3.10;;;18.10;99.90;;;;;;5030746;28;20188;-65
2023/07/17 00:35:35;;;;;;;7.00;3.30;;;18.10;99.90;;;;;;5030680;28;20435;-65
2023/07/17 00:38:00;;;;;;;6.83;3.00;;;18.30;99.90;;;;;;5030677;28;20975;-65
2023/07/17 00:40:26;;;;;;;5.30;3.10;;;18.40;99.90;;;;;;5030462;28;20459;-65
2023/07/17 00:42:59;;;;;;;4.87;2.90;;;18.40;99.90;;;;;;5030523;28;20205;-65
2023/07/17 00:45:30;;;;;;;13.23;3.03;;;18.50;99.90;;;;;;5030475;28;20644;-65
2023/07/17 00:47:56;;;;;;;6.00;2.60;;;18.40;99.90;;;;;;5030465;28;20442;-65
2023/07/17 00:50:21;;;;;;;4.87;2.90;;;18.30;99.90;;;;;;5030230;28;20463;-65
2023/07/17 00:52:47;;;;;;;9.03;2.80;;;18.20;99.90;;;;;;5030252;28;20425;-65
2023/07/17 00:55:13;;;;;;;7.50;3.70;;;18.10;99.90;;;;;;5030225;28;20192;-65
2023/07/17 00:57:40;;;;;;;10.50;2.70;;;18.20;99.90;;;;;;5030189;28;20181;-65
2023/07/17 01:00:08;;;;;;;5.83;2.77;;;18.40;99.90;;;;;;5029602;28;20469;-65
2023/07/17 01:02:36;;;;;;;7.47;2.70;;;18.70;99.90;;;;;;5030102;28;20464;-65
2023/07/17 01:05:01;;;;;;;3.27;2.07;;;18.80;99.90;;;;;;5030204;28;20480;-65
2023/07/17 01:07:27;;;;;;;3.63;2.90;;;19.00;99.90;;;;;;5030085;28;20423;-65
2023/07/17 01:09:53;;;;;;;7.37;2.90;;;19.10;99.90;;;;;;5029957;28;20197;-65
2023/07/17 01:12:18;;;;;;;4.80;2.53;;;19.20;99.90;;;;;;5029898;28;20184;-65
2023/07/17 01:14:44;;;;;;;4.17;2.57;;;19.20;99.90;;;;;;5029905;28;20284;-65
2023/07/17 01:17:10;;;;;;;10.87;2.80;;;19.20;99.90;;;;;;5029798;28;20188;-65
2023/07/17 01:19:35;;;;;;;4.30;2.50;;;19.20;99.90;;;;;;5029890;28;20203;-65
2023/07/17 01:22:04;;;;;;;4.97;2.50;;;19.30;99.90;;;;;;5029487;28;20712;-65
2023/07/17 01:24:30;;;;;;;6.10;2.70;;;19.30;99.90;;;;;;5029705;28;20547;-65
2023/07/17 01:26:56;;;;;;;3.67;2.53;;;19.40;99.90;;;;;;5029571;28;20415;-65
2023/07/17 01:29:21;;;;;;;9.73;2.70;;;19.30;99.90;;;;;;5029478;28;20287;-64
2023/07/17 01:31:47;;;;;;;5.50;2.80;;;19.30;99.90;;;;;;5029680;28;20195;-64
2023/07/17 01:34:12;;;;;;;4.30;2.90;;;19.40;99.90;;;;;;5029572;28;20535;-64
2023/07/17 01:36:38;;;;;;;4.70;2.80;;;19.40;99.90;;;;;;5029516;28;20191;-65
2023/07/17 01:39:04;;;;;;;10.13;2.87;;;19.30;99.90;;;;;;5029530;28;20631;-65
2023/07/17 01:41:30;;;;;;;5.13;2.43;;;19.20;99.90;;;;;;5029263;28;20195;-65
2023/07/17 01:43:56;;;;;;;4.50;2.83;;;19.20;99.90;;;;;;5029367;28;20428;-65
2023/07/17 01:46:21;;;;;;;6.47;3.00;;;19.00;99.90;;;;;;5029514;28;20211;-65
2023/07/17 01:48:47;;;;;;;3.20;2.43;;;18.90;99.90;;;;;;5029038;28;20270;-65
2023/07/17 01:51:12;;;;;;;5.73;3.17;;;18.90;99.90;;;;;;5029239;28;20541;-65
2023/07/17 01:53:38;;;;;;;5.27;2.40;;;19.00;99.90;;;;;;5029490;28;20755;-65
2023/07/17 01:56:04;;;;;;;5.33;2.70;;;18.90;99.90;;;;;;5029097;28;20593;-65
2023/07/17 01:58:29;;;;;;;2.70;2.17;;;19.00;99.90;;;;;;5029162;28;20192;-65
2023/07/17 02:00:56;;;;;;;4.60;3.40;;;19.00;99.90;;;;;;5029073;28;20706;-65
2023/07/17 02:03:22;;;;;;;6.60;3.00;;;19.10;99.90;;;;;;5028913;28;20318;-65
2023/07/17 02:05:50;;;;;;;6.40;2.87;;;19.10;99.90;;;;;;5029330;28;20918;-65
2023/07/17 02:08:15;;;;;;;3.20;2.40;;;19.10;99.90;;;;;;5029242;28;20499;-65
2023/07/17 02:10:47;;;;;;;8.93;3.43;;;19.10;99.90;;;;;;5028051;28;20835;-65
2023/07/17 02:13:12;;;;;;;4.33;2.30;;;19.00;99.90;;;;;;5028736;28;20439;-65
2023/07/17 02:15:38;;;;;;;4.70;2.77;;;19.00;99.90;;;;;;5028764;28;20419;-65
2023/07/17 02:18:03;;;;;;;8.87;3.17;;;19.00;99.90;;;;;;5029163;28;20227;-65
2023/07/17 02:20:29;;;;;;;9.50;2.80;;;19.00;99.90;;;;;;5028654;28;20587;-65
2023/07/17 02:22:55;;;;;;;7.40;2.70;;;19.10;99.90;;;;;;5028718;28;20207;-65
2023/07/17 02:25:20;;;;;;;6.47;2.33;;;19.10;99.90;;;;;;5028590;28;20187;-65
2023/07/17 02:27:46;;;;;;;5.47;2.93;;;19.10;99.90;;;;;;5028843;28;20682;-65
2023/07/17 02:30:11;;;;;;;3.90;2.50;;;19.10;99.90;;;;;;5028579;28;20290;-65
2023/07/17 02:32:38;;;;;;;7.80;3.30;;;19.10;99.90;;;;;;5028549;28;20266;-65
2023/07/17 02:35:04;;;;;;;4.20;2.40;;;19.10;99.90;;;;;;5028826;28;20188;-65
2023/07/17 02:37:30;;;;;;;6.03;2.90;;;19.20;99.90;;;;;;5028409;28;20427;-65
2023/07/17 02:39:56;;;;;;;10.40;2.30;;;19.30;99.90;;;;;;5028356;28;20870;-65
2023/07/17 02:42:22;;;;;;;5.00;2.43;;;19.30;99.90;;;;;;5028401;28;20251;-65
2023/07/17 02:44:48;;;;;;;7.37;2.43;;;19.20;99.90;;;;;;5028601;28;20462;-65
2023/07/17 02:47:14;;;;;;;7.03;3.30;;;19.30;99.90;;;;;;5028424;28;20653;-65
2023/07/17 02:49:40;;;;;;;7.53;3.57;;;19.30;99.90;;;;;;5028162;28;20629;-65
2023/07/17 02:52:06;;;;;;;12.37;3.00;;;19.30;99.90;;;;;;5028436;28;20518;-65
2023/07/17 02:54:32;;;;;;;3.53;2.67;;;19.30;99.90;;;;;;5028238;28;20425;-65
2023/07/17 02:56:57;;;;;;;7.63;4.07;;;19.20;99.90;;;;;;5028342;28;20803;-64
2023/07/17 02:59:23;;;;;;;6.50;3.10;;;19.00;99.90;;;;;;5028152;28;20746;-67
2023/07/17 03:01:49;;;;;;;6.67;2.70;;;18.90;99.90;;;;;;5028153;28;20761;-67
2023/07/17 03:04:15;;;;;;;3.00;2.50;;;18.90;99.90;;;;;;5028165;28;20469;-67
2023/07/17 03:06:41;;;;;;;6.30;3.13;;;18.90;99.90;;;;;;5028059;28;20192;-67
2023/07/17 03:09:06;;;;;;;5.23;2.97;;;18.90;99.90;;;;;;5028069;28;20283;-67
2023/07/17 03:11:32;;;;;;;8.70;2.90;;;18.90;99.90;;;;;;5028156;28;20191;-67
2023/07/17 03:13:58;;;;;;;4.60;2.77;;;18.90;99.90;;;;;;5028144;28;20226;-67
2023/07/17 03:16:24;;;;;;;8.07;2.43;;;18.90;99.90;;;;;;5028040;28;21245;-67
2023/07/17 03:18:49;;;;;;;3.50;2.20;;;18.90;99.90;;;;;;5028302;28;20273;-67
2023/07/17 03:21:15;;;;;;;8.00;2.90;;;19.00;99.90;;;;;;5028145;28;20283;-67
2023/07/17 03:23:41;;;;;;;6.50;2.70;;;19.00;99.90;;;;;;5030754;28;20263;-67
2023/07/17 03:26:06;;;;;;;6.93;2.83;;;19.00;99.90;;;;;;5031972;28;20195;-67
2023/07/17 03:28:32;;;;;;;8.40;2.77;;;18.90;99.90;;;;;;5031971;28;20181;-67
2023/07/17 03:30:58;;;;;;;5.77;2.60;;;18.90;99.90;;;;;;5031949;28;20195;-67
2023/07/17 03:33:24;;;;;;;4.93;2.37;;;18.90;99.90;;;;;;5031791;28;20569;-67
2023/07/17 03:35:50;;;;;;;4.37;2.77;;;18.90;99.90;;;;;;5030360;28;20260;-68
2023/07/17 03:38:16;;;;;;;6.17;2.90;;;18.80;99.90;;;;;;5031759;28;21044;-67
2023/07/17 03:40:41;;;;;;;2.93;2.37;;;18.70;99.90;;;;;;5031745;28;20219;-67
2023/07/17 03:43:07;;;;;;;6.60;3.17;;;18.70;99.90;;;;;;5031770;28;20227;-67
2023/07/17 03:45:32;;;;;;;6.37;2.53;;;18.70;99.90;;;;;;5031707;28;20212;-67
2023/07/17 03:47:58;;;;;;;6.63;2.67;;;18.80;99.90;;;;;;5031658;28;20683;-67
2023/07/17 03:50:24;;;;;;;8.80;3.20;;;18.80;99.90;;;;;;5031609;28;20270;-67
2023/07/17 03:52:50;;;;;;;4.20;2.00;;;18.80;99.90;;;;;;5031594;28;20188;-67
2023/07/17 03:55:16;;;;;;;7.53;2.97;;;18.90;99.90;;;;;;5031652;28;20188;-67
2023/07/17 03:57:41;;;;;;;3.67;2.90;;;19.00;99.90;;;;;;5030426;28;20445;-67
2023/07/17 04:00:13;;;;;;;5.10;2.80;;;19.00;99.90;;;;;;5031770;28;20618;-67
2023/07/17 04:02:42;;;;;;;9.43;3.23;;;19.00;99.90;;;;;;5031692;28;20212;-66
2023/07/17 04:05:08;;;;;;;7.83;3.07;;;18.90;99.90;;;;;;5031756;28;20430;-67
2023/07/17 04:07:33;;;;;;;6.67;2.77;;;18.80;99.90;;;;;;5031810;28;20419;-67
2023/07/17 04:09:59;;;;;;;7.63;3.10;;;18.80;99.90;;;;;;5031720;28;20486;-67
2023/07/17 04:12:25;;;;;;;6.60;2.80;;;18.90;99.90;;;;;;5032180;28;20283;-66
2023/07/17 04:14:50;;;;;;;7.57;2.87;;;18.90;99.90;;;;;;5031898;28;20196;-67
2023/07/17 04:17:16;;;;;;;7.93;3.00;;;18.90;99.90;;;;;;5031950;28;20185;-67
2023/07/17 04:19:41;;;;;;;4.37;2.23;;;19.00;99.90;;;;;;5031988;28;20204;-67
2023/07/17 04:22:07;;;;;;;2.80;2.50;;;19.00;99.90;;;;;;5031992;28;20223;-66
2023/07/17 04:24:34;;;;;;;3.10;2.20;;;19.00;99.90;;;;;;5031911;28;20238;-67
2023/07/17 04:26:59;;;;;;;7.23;3.27;;;19.10;99.90;;;;;;5031718;28;20199;-67
2023/07/17 04:29:25;;;;;;;8.30;2.83;;;19.10;99.90;;;;;;5031295;28;21247;-67
2023/07/17 04:31:51;;;;;;;13.93;4.30;;;19.10;99.90;;;;;;5030207;28;20188;-67
2023/07/17 04:34:18;;;;;;;5.07;3.07;;;19.10;99.90;;;;;;5028834;28;20717;-67
2023/07/17 04:36:44;;;;;;;7.60;2.90;;;19.20;99.90;;;;;;5029240;28;20424;-67
2023/07/17 04:39:09;;;;;;;7.83;2.90;;;19.20;99.90;;;;;;5029170;28;20423;-67
2023/07/17 04:41:35;;;;;;;5.50;3.00;;;19.30;99.90;;;;;;5029083;28;20447;-67
2023/07/17 04:44:01;;;;;;;7.17;2.70;;;19.30;99.90;;;;;;5029300;28;20181;-67
2023/07/17 04:46:26;;;;;;;5.17;2.93;;;19.30;99.90;;;;;;5029018;28;20212;-67
2023/07/17 04:48:52;;;;;;;6.53;3.33;;;19.30;99.90;;;;;;5028678;28;20315;-67
2023/07/17 04:51:17;;;;;;;6.13;2.33;;;19.30;99.90;;;;;;5029038;28;20204;-67
2023/07/17 04:53:43;;;;;;;6.43;2.77;;;19.40;99.90;;;;;;5028974;28;20186;-67
2023/07/17 04:56:09;;;;;;;9.70;3.30;;;19.40;99.90;;;;;;5028928;28;20193;-67
2023/07/17 04:58:34;;;;;;;9.83;3.00;;;19.50;99.90;;;;;;5028881;28;20651;-67
2023/07/17 05:01:01;;;;;;;7.80;3.00;;;19.50;99.90;;;;;;5029068;28;20188;-67
2023/07/17 05:03:29;;;;;;;5.77;2.83;;;19.60;99.90;;;;;;5029027;28;20230;-67
2023/07/17 05:05:55;;;;;;;5.10;2.50;;;19.60;99.90;;;;;;5029197;28;20415;-67
2023/07/17 05:08:22;;;;;;;5.40;3.13;;;19.60;99.90;;;;;;5029006;28;20491;-67
2023/07/17 05:10:58;;;;;;;6.57;3.00;;;19.60;99.90;;;;;;5028741;28;21205;-67
2023/07/17 05:13:23;;;;;;;10.17;3.57;;;19.70;99.90;;;;;;5028823;28;20418;-67
2023/07/17 05:15:50;;;;;;;8.40;3.20;;;19.70;99.90;;;;;;5028679;28;20420;-67
2023/07/17 05:18:16;;;;;;;5.93;2.83;;;19.80;99.90;;;;;;5028704;28;20187;-67
2023/07/17 05:20:45;;;;;;;7.33;2.80;;;19.90;99.90;;;;;;5029198;28;20759;-68
2023/07/17 05:23:11;;;;;;;9.83;2.77;;;20.10;99.90;;;;;;5029061;28;20529;-67
2023/07/17 05:25:37;;;;;;;5.00;2.73;;;20.20;99.90;;;;;;5029253;28;20423;-67
2023/07/17 05:28:04;;;;;;;5.50;2.57;;;20.40;99.90;;;;;;5029530;28;20431;-67
2023/07/17 05:30:33;;;;;;;6.50;2.90;;;20.40;99.90;;;;;;5027705;28;20192;-67
2023/07/17 05:32:59;;;;;;;4.40;2.60;;;20.50;99.90;;;;;;5029225;28;20899;-66
2023/07/17 05:35:24;;;;;;;8.23;3.47;;;20.60;99.90;;;;;;5029288;28;20455;-67
2023/07/17 05:37:50;;;;;;;7.10;3.10;;;20.60;99.90;;;;;;5029498;28;20770;-67
2023/07/17 05:40:16;;;;;;;10.90;3.10;;;20.70;99.90;;;;;;5029460;28;20751;-68
2023/07/17 05:42:42;;;;;;;8.50;3.73;;;20.70;99.90;;;;;;5029056;28;20201;-67
2023/07/17 05:45:09;;;;;;;3.70;2.93;;;20.80;99.90;;;;;;5028566;28;20419;-67
2023/07/17 05:47:35;;;;;;;8.17;3.37;;;20.90;99.90;;;;;;5028579;28;20527;-67
2023/07/17 05:50:01;;;;;;;6.17;3.07;;;20.90;99.90;;;;;;5028027;28;20534;-67
2023/07/17 05:52:27;;;;;;;9.87;3.00;;;21.00;99.90;;;;;;5027993;28;21005;-67
2023/07/17 05:54:52;;;;;;;8.17;3.00;;;21.10;99.90;;;;;;5028223;28;20238;-67
2023/07/17 05:57:18;;;;;;;7.57;2.60;;;21.20;99.90;;;;;;5027884;28;20216;-67
2023/07/17 05:59:43;;;;;;;5.30;3.00;;;21.30;99.90;;;;;;5027779;28;20209;-67
2023/07/17 06:02:09;;;;;;;7.37;3.40;;;21.40;99.90;;;;;;5027632;28;20228;-67
2023/07/17 06:04:35;;;;;;;8.33;3.30;;;21.50;99.90;;;;;;5027805;28;20606;-67
2023/07/17 06:07:00;;;;;;;8.10;3.57;;;21.50;99.90;;;;;;5026203;28;20188;-67
2023/07/17 06:09:26;;;;;;;9.20;2.87;;;21.50;99.90;;;;;;5027534;28;20204;-67
2023/07/17 06:11:51;;;;;;;9.73;3.10;;;21.40;99.90;;;;;;5027385;28;20236;-67
2023/07/17 06:14:18;;;;;;;9.67;3.23;;;21.50;99.90;;;;;;5027479;28;20282;-67
2023/07/17 06:16:43;;;;;;;5.87;2.60;;;21.60;99.90;;;;;;5027331;28;20610;-67
2023/07/17 06:19:09;;;;;;;8.50;3.27;;;21.70;99.90;;;;;;5027252;28;20435;-66
2023/07/17 06:21:34;;;;;;;6.80;4.00;;;21.70;99.90;;;;;;5027306;28;20549;-67
2023/07/17 06:24:00;;;;;;;5.37;2.80;;;21.80;99.90;;;;;;5027150;28;20224;-67
2023/07/17 06:26:26;;;;;;;6.80;2.53;;;21.90;99.90;;;;;;5027217;28;20185;-66
2023/07/17 06:28:51;;;;;;;7.63;2.93;;;21.90;99.90;;;;;;5027363;28;20208;-67
2023/07/17 06:31:17;;;;;;;4.67;2.70;;;21.90;99.90;;;;;;5027119;28;20191;-67
2023/07/17 06:33:43;;;;;;;5.87;2.57;;;21.70;99.90;;;;;;5027222;28;20215;-67
2023/07/17 06:36:08;;;;;;;6.60;3.53;;;21.60;99.90;;;;;;5027288;28;20600;-67
2023/07/17 06:38:34;;;;;;;7.23;3.43;;;21.60;99.90;;;;;;5027053;28;20188;-67
2023/07/17 06:40:59;;;;;;;8.03;3.10;;;21.70;99.90;;;;;;5025566;28;20679;-67
2023/07/17 06:43:25;;;;;;;7.17;4.00;;;21.80;99.90;;;;;;5026938;28;20283;-67
2023/07/17 06:45:50;;;;;;;4.80;2.90;;;21.80;99.90;;;;;;5027011;28;20192;-67
2023/07/17 06:48:16;;;;;;;7.70;3.10;;;21.80;99.90;;;;;;5027010;28;20570;-67
2023/07/17 06:50:42;;;;;;;7.70;3.27;;;21.80;99.90;;;;;;5026795;28;20220;-67
2023/07/17 06:53:07;;;;;;;6.00;3.20;;;21.80;99.90;;;;;;5026885;28;20193;-67
2023/07/17 06:55:33;;;;;;;8.23;3.67;;;21.90;99.90;;;;;;5027376;28;20197;-68
2023/07/17 06:57:58;;;;;;;7.23;2.93;;;22.00;99.90;;;;;;5026283;28;20252;-67
2023/07/17 07:00:24;;;;;;;5.90;2.93;;;22.10;99.90;;;;;;5026705;28;20239;-67
2023/07/17 07:02:50;;;;;;;9.10;3.60;;;22.30;99.90;;;;;;5026713;28;20219;-67
2023/07/17 07:05:15;;;;;;;8.40;3.60;;;22.30;99.90;;;;;;5026770;28;20192;-67
2023/07/17 07:07:41;;;;;;;6.50;3.00;;;22.40;99.90;;;;;;5026860;28;20635;-67
2023/07/17 07:10:07;;;;;;;4.80;3.10;;;22.50;99.90;;;;;;5026734;28;20212;-67
2023/07/17 07:12:33;;;;;;;5.13;2.80;;;22.50;99.90;;;;;;5026709;28;20184;-68
2023/07/17 07:14:58;;;;;;;4.10;2.63;;;22.70;99.90;;;;;;5026678;28;20924;-67
2023/07/17 07:17:24;;;;;;;10.40;3.10;;;22.70;99.90;;;;;;5026749;28;20553;-66
2023/07/17 07:19:52;;;;;;;6.50;3.33;;;22.80;99.90;;;;;;5026830;28;20263;-67
2023/07/17 07:22:18;;;;;;;10.77;3.57;;;23.00;99.90;;;;;;5026573;28;20305;-67
2023/07/17 07:24:46;;;;;;;5.00;3.10;;;23.00;99.90;;;;;;5026605;28;20524;-67
2023/07/17 07:27:12;;;;;;;5.30;3.20;;;23.00;98.70;;;;;;5026766;28;20598;-67
2023/07/17 07:29:37;;;;;;;6.53;3.60;;;22.90;99.90;;;;;;5026561;28;20476;-67
2023/07/17 07:32:04;;;;;;;6.20;3.37;;;23.10;99.90;;;;;;5026505;28;20273;-67
2023/07/17 07:34:30;;;;;;;13.73;3.50;;;23.10;99.90;;;;;;5026442;28;20873;-67
2023/07/17 07:36:55;;;;;;;5.30;2.90;;;23.10;99.80;;;;;;5026459;28;20517;-67
2023/07/17 07:39:21;;;;;;;13.63;3.70;;;23.10;99.40;;;;;;5026464;28;20689;-67
2023/07/17 07:41:47;;;;;;;5.70;4.27;;;23.20;99.90;;;;;;5026424;28;20227;-66
2023/07/17 07:44:12;;;;;;;4.80;3.63;;;23.30;99.10;;;;;;5026390;28;20181;-67
2023/07/17 07:46:38;;;;;;;8.47;4.23;;;23.30;98.40;;;;;;5026412;28;20296;-67
2023/07/17 07:49:04;;;;;;;7.83;4.47;;;23.30;98.20;;;;;;5026373;28;20223;-67
2023/07/17 07:51:29;;;;;;;10.10;3.67;;;23.30;98.90;;;;;;5026555;28;20422;-67
2023/07/17 07:53:55;;;;;;;7.27;4.07;;;23.30;98.20;;;;;;5026541;28;20564;-67
2023/07/17 07:56:21;;;;;;;7.63;4.00;;;23.40;99.20;;;;;;5026524;28;20185;-67
2023/07/17 07:58:47;;;;;;;5.03;3.53;;;23.40;96.70;;;;;;5026426;28;20213;-67
2023/07/17 08:01:13;;;;;;;11.97;4.67;;;23.40;97.50;;;;;;5026476;28;20196;-67
2023/07/17 08:03:40;;;;;;;11.07;4.80;;;23.40;95.80;;;;;;5026582;28;20475;-67
2023/07/17 08:06:06;;;;;;;18.40;5.00;;;23.50;96.20;;;;;;5026829;28;20196;-67
2023/07/17 08:08:32;;;;;;;6.47;4.37;;;23.60;95.70;;;;;;5026460;28;20420;-67
2023/07/17 08:10:58;;;;;;;12.10;5.00;;;23.60;94.70;;;;;;5029282;28;20435;-67
2023/07/17 08:13:24;;;;;;;15.20;4.83;;;23.70;94.50;;;;;;5029616;28;20453;-67
2023/07/17 08:15:49;;;;;;;7.90;3.57;;;23.60;94.50;;;;;;5029835;28;20658;-67
2023/07/17 08:18:16;;;;;;;12.57;5.17;;;23.50;95.00;;;;;;5029531;28;20191;-67
2023/07/17 08:20:42;;;;;;;11.07;5.30;;;23.70;99.30;;;;;;5029518;28;20215;-67
2023/07/17 08:23:08;;;;;;;9.20;4.60;;;23.80;95.70;;;;;;5029423;28;21040;-67
2023/07/17 08:25:33;;;;;;;8.27;4.20;;;24.00;95.10;;;;;;5029645;28;20434;-68
2023/07/17 08:27:59;;;;;;;12.07;4.87;;;24.10;95.60;;;;;;5029294;28;20210;-67
2023/07/17 08:30:25;;;;;;;8.47;4.97;;;24.00;92.80;;;;;;5029280;28;20575;-67
2023/07/17 08:32:50;;;;;;;5.70;4.60;;;24.00;92.80;;;;;;5029465;28;20201;-67
2023/07/17 08:35:16;;;;;;;7.03;4.43;;;24.00;92.60;;;;;;5029345;28;20206;-67
2023/07/17 08:37:41;;;;;;;11.20;5.00;;;24.00;92.80;;;;;;5029226;28;20327;-67
2023/07/17 08:40:10;;;;;;;9.40;4.70;;;24.00;93.10;;;;;;5029064;28;20219;-67
2023/07/17 08:42:38;;;;;;;9.43;5.40;;;24.30;92.50;;;;;;5029170;28;20211;-67
2023/07/17 08:45:06;;;;;;;7.53;4.33;;;24.20;91.90;;;;;;5029510;28;20794;-67
2023/07/17 08:47:32;;;;;;;10.47;5.37;;;24.20;92.10;;;;;;5029222;28;20480;-67
2023/07/17 08:50:00;;;;;;;8.30;5.10;;;24.30;92.10;;;;;;5028970;28;20462;-67
2023/07/17 08:52:28;;;;;;;10.67;5.30;;;24.40;92.50;;;;;;5029503;28;20495;-67
2023/07/17 08:54:53;;;;;;;4.93;4.20;;;24.50;91.20;;;;;;5028863;28;20848;-67
2023/07/17 08:57:20;;;;;;;8.10;4.60;;;24.50;92.00;;;;;;5028900;28;20450;-67
2023/07/17 08:59:46;;;;;;;7.97;4.97;;;24.70;91.90;;;;;;5027167;28;20212;-67
2023/07/17 09:02:11;;;;;;;6.70;4.50;;;24.80;91.60;;;;;;5028937;28;20895;-67
2023/07/17 09:04:37;;;;;;;7.50;4.43;;;24.90;90.70;;;;;;5028995;28;20608;-67
2023/07/17 09:07:03;;;;;;;10.70;5.20;;;25.20;91.70;;;;;;5028842;28;20194;-67
2023/07/17 09:09:28;;;;;;;6.00;3.83;;;25.30;90.60;;;;;;5028536;28;20761;-67
2023/07/17 09:12:07;;;;;;;7.13;4.60;;;25.20;91.20;;;;;;5028604;28;20497;-67
2023/07/17 09:14:33;;;;;;;12.33;5.03;;;25.30;88.40;;;;;;5028606;28;20548;-67
2023/07/17 09:17:04;;;;;;;10.20;5.13;;;25.40;86.50;;;;;;5028535;28;20913;-67
2023/07/17 09:19:32;;;;;;;10.30;4.07;;;25.40;87.20;;;;;;5028644;28;20562;-67
2023/07/17 09:22:01;;;;;;;6.60;4.63;;;25.70;86.10;;;;;;5027927;28;20418;-67
2023/07/17 09:24:27;;;;;;;7.07;4.47;;;25.90;82.50;;;;;;5028406;28;20427;-67
2023/07/17 09:26:57;;;;;;;11.20;5.17;;;26.30;84.90;;;;;;5028274;28;20506;-67
2023/07/17 09:29:26;;;;;;;9.13;4.40;;;26.60;83.90;;;;;;5028118;28;20447;-67
2023/07/17 09:31:51;;;;;;;6.63;4.40;;;26.80;81.30;;;;;;5028218;28;20430;-67
2023/07/17 09:34:18;;;;;;;6.23;4.67;;;26.70;81.60;;;;;;5028204;28;20427;-67
2023/07/17 09:36:48;;;;;;;9.10;5.27;;;26.80;80.90;;;;;;5028517;28;20262;-67
2023/07/17 09:39:13;;;;;;;7.83;4.87;;;27.10;84.10;;;;;;5028367;28;20452;-67
2023/07/17 09:41:39;;;;;;;6.10;4.60;;;27.00;82.60;;;;;;5028197;28;20427;-67
2023/07/17 09:44:07;;;;;;;7.47;4.83;;;27.00;81.60;;;;;;5028130;28;20227;-67
2023/07/17 09:46:36;;;;;;;7.20;4.00;;;27.30;81.70;;;;;;5028062;28;20250;-67
2023/07/17 09:49:06;;;;;;;5.90;3.70;;;27.50;78.40;;;;;;5027790;28;20487;-67
2023/07/17 09:51:32;;;;;;;6.77;3.80;;;27.80;78.70;;;;;;5027950;28;20455;-67
2023/07/17 09:53:58;;;;;;;8.77;4.40;;;28.10;79.70;;;;;;5027778;28;20419;-67
2023/07/17 09:56:29;;;;;;;7.20;4.77;;;28.30;78.80;;;;;;5028438;28;20411;-67
2023/07/17 09:59:01;;;;;;;5.83;4.50;;;28.70;81.60;;;;;;5027945;28;20216;-67
2023/07/17 10:01:27;;;;;;;8.47;3.73;;;28.80;80.20;;;;;;5028379;28;20422;-67
2023/07/17 10:03:53;;;;;;;7.27;4.10;;;28.80;78.70;;;;;;5028295;28;20462;-67
2023/07/17 10:06:20;;;;;;;6.23;4.10;;;28.90;79.90;;;;;;5028650;28;21002;-67
2023/07/17 10:08:49;;;;;;;7.97;4.03;;;28.90;74.10;;;;;;5028886;28;20412;-67
2023/07/17 10:11:16;;;;;;;5.07;4.20;;;28.80;76.30;;;;;;5029258;28;20435;-68
2023/07/17 10:13:44;;;;;;;6.07;4.53;;;28.70;75.40;;;;;;5029170;28;20431;-67
2023/07/17 10:16:11;;;;;;;6.87;5.27;;;28.90;77.90;;;;;;5029094;28;20411;-67
2023/07/17 10:18:49;;;;;;;7.40;3.87;;;28.80;79.30;;;;;;5029096;28;20514;-67
2023/07/17 10:21:17;;;;;;;5.87;4.30;;;29.00;77.90;;;;;;5029161;28;20438;-67
2023/07/17 10:23:44;;;;;;;8.03;4.70;;;29.20;76.40;;;;;;5029017;28;20577;-67
2023/07/17 10:26:12;;;;;;;6.10;4.07;;;29.50;77.20;;;;;;5027797;28;20496;-67
2023/07/17 10:28:38;;;;;;;6.87;4.40;;;29.80;76.30;;;;;;5028959;28;20422;-66
2023/07/17 10:31:18;;;;;;;7.53;3.90;;;29.70;72.40;;;;;;5028973;28;20421;-67
2023/07/17 10:34:06;;;;;;;7.00;4.17;;;29.80;74.40;;;;;;5028268;28;20953;-67
2023/07/17 10:36:44;;;;;;;6.10;4.60;;;29.30;74.80;;;;;;5028734;28;20439;-66
2023/07/17 10:39:18;;;;;;;5.87;4.00;;;29.30;74.20;;;;;;5028567;28;20839;-67
2023/07/17 10:41:44;;;;;;;13.80;4.53;;;29.40;74.30;;;;;;5028363;28;20425;-67
2023/07/17 10:44:18;;;;;;;7.40;4.53;;;29.20;72.50;;;;;;5028509;28;20467;-67
2023/07/17 10:46:43;;;;;;;7.50;5.03;;;29.10;72.50;;;;;;5028954;28;20565;-67
2023/07/17 10:49:11;;;;;;;11.13;4.40;;;29.30;74.40;;;;;;5028622;28;20459;-67
2023/07/17 10:51:42;;;;;;;10.63;4.37;;;29.10;73.70;;;;;;5028714;28;20192;-68
2023/07/17 10:54:08;;;;;;;11.00;4.37;;;28.60;72.50;;;;;;5028574;28;20430;-68
2023/07/17 10:56:34;;;;;;;6.70;4.77;;;28.40;72.80;;;;;;5028732;28;20792;-68
2023/07/17 10:59:00;;;;;;;6.63;3.83;;;28.30;71.50;;;;;;5028521;28;20208;-67
2023/07/17 11:01:25;;;;;;;5.87;4.30;;;28.30;73.50;;;;;;5028225;28;20430;-67
2023/07/17 11:03:53;;;;;;;4.50;4.00;;;28.10;70.10;;;;;;5027958;28;20486;-68
2023/07/17 11:06:19;;;;;;;5.30;4.20;;;28.00;72.30;;;;;;5027965;28;20200;-68
2023/07/17 11:08:51;;;;;;;5.77;4.30;;;28.20;73.50;;;;;;5028357;28;20457;-68
2023/07/17 11:11:18;;;;;;;6.27;4.33;;;28.40;75.30;;;;;;5028149;28;20973;-67
2023/07/17 11:13:45;;;;;;;7.77;4.20;;;28.70;74.20;;;;;;5028405;28;20418;-67
2023/07/17 11:16:11;;;;;;;6.50;4.40;;;28.90;73.50;;;;;;5028445;28;20497;-68
2023/07/17 11:18:48;;;;;;;6.70;4.23;;;28.90;72.20;;;;;;5028823;28;20422;-68
2023/07/17 11:21:27;;;;;;;8.60;4.83;;;28.40;69.10;;;;;;5028532;28;20791;-67
2023/07/17 11:23:57;;;;;;;5.10;4.00;;;28.00;71.30;;;;;;5028392;28;20455;-68
2023/07/17 11:26:33;;;;;;;7.10;4.83;;;27.80;71.80;;;;;;5028490;28;20787;-68
2023/07/17 11:29:02;;;;;;;5.70;4.17;;;27.50;72.20;;;;;;5028662;28;20787;-67
2023/07/17 11:31:30;;;;;;;7.40;4.23;;;27.40;72.90;;;;;;5028370;28;20415;-68
2023/07/17 11:33:59;;;;;;;9.20;4.30;;;27.00;71.10;;;;;;5028447;28;20416;-67
2023/07/17 11:36:26;;;;;;;8.97;4.77;;;27.00;73.70;;;;;;5028414;28;20427;-68
2023/07/17 11:38:56;;;;;;;6.17;4.33;;;27.10;74.20;;;;;;5028303;28;20443;-68
2023/07/17 11:41:21;;;;;;;5.90;4.20;;;27.40;72.00;;;;;;5028207;28;20841;-68
2023/07/17 11:43:56;;;;;;;9.53;4.83;;;27.80;73.20;;;;;;5029494;28;20455;-68
2023/07/17 11:46:23;;;;;;;6.90;4.60;;;27.90;73.40;;;;;;5031886;28;20237;-67
2023/07/17 11:48:53;;;;;;;4.73;4.20;;;28.00;73.80;;;;;;5031593;28;20514;-68
2023/07/17 11:51:23;;;;;;;6.13;4.30;;;28.00;73.80;;;;;;5031744;28;20434;-68
2023/07/17 11:53:54;;;;;;;10.83;5.20;;;27.80;71.00;;;;;;5031684;28;20430;-68
2023/07/17 11:56:20;;;;;;;10.47;4.50;;;27.80;74.50;;;;;;5031474;28;20459;-68
2023/07/17 11:58:51;;;;;;;10.43;5.17;;;28.10;74.60;;;;;;5031391;28;20423;-68
2023/07/17 12:01:17;;;;;;;6.73;4.10;;;28.30;74.90;;;;;;5031388;28;20439;-68
2023/07/17 12:03:43;;;;;;;6.37;4.70;;;28.50;73.20;;;;;;5031056;28;20552;-68
2023/07/17 12:06:08;;;;;;;7.73;4.23;;;28.50;74.30;;;;;;5031606;28;20214;-67
2023/07/17 12:08:34;;;;;;;5.53;4.00;;;28.40;74.30;;;;;;5031353;28;20188;-68
2023/07/17 12:10:59;;;;;;;6.00;4.20;;;28.20;73.50;;;;;;5031584;28;20192;-68
2023/07/17 12:13:25;;;;;;;6.40;4.30;;;28.30;72.10;;;;;;5030033;28;20768;-68
2023/07/17 12:15:51;;;;;;;5.80;4.60;;;28.50;74.20;;;;;;5031292;28;20199;-68
2023/07/17 12:18:16;;;;;;;10.37;4.97;;;28.70;73.30;;;;;;5031188;28;20258;-68
2023/07/17 12:20:42;;;;;;;8.07;4.40;;;28.70;73.30;;;;;;5031034;28;20212;-68
2023/07/17 12:23:08;;;;;;;6.00;4.47;;;28.60;71.80;;;;;;5030638;28;20682;-68
2023/07/17 12:25:35;;;;;;;12.17;5.13;;;28.40;73.10;;;;;;5030443;28;20183;-68
2023/07/17 12:28:01;;;;;;;8.60;5.10;;;28.20;72.80;;;;;;5030261;28;20427;-68
2023/07/17 12:30:27;;;;;;;6.17;4.27;;;27.90;75.10;;;;;;5030178;28;20478;-68
2023/07/17 12:32:52;;;;;;;6.17;4.47;;;27.80;73.10;;;;;;5030926;28;20187;-68
2023/07/17 12:35:18;;;;;;;6.60;4.80;;;27.70;74.40;;;;;;5030594;28;20431;-68
2023/07/17 12:37:43;;;;;;;6.97;4.17;;;28.00;76.10;;;;;;5030177;28;20188;-68
2023/07/17 12:40:09;;;;;;;7.20;4.57;;;28.50;75.60;;;;;;5030149;28;20278;-67
2023/07/17 12:42:36;;;;;;;8.30;4.50;;;28.80;75.70;;;;;;5029965;28;20215;-68